Time;durP1;ratioP1;P1;durP2;ratioP2;P2;SDS_P1;SDS_P2;PMS_P1;PMS_P2;Temp;Humidity;BMP_temperature;BMP_pressure;BME280_temperature;BME280_humidity;BME280_pressure;Samples;Min_cycle;Max_cycle;Signal;HPM_P1;HPM_P2
2022/04/29 00:00:18;;;;;;;33.13;12.43;;;26.20;99.90;;;;;;5061769;28;20032;-65
2022/04/29 00:02:46;;;;;;;29.05;13.30;;;26.20;99.90;;;;;;5062396;28;20029;-64
2022/04/29 00:05:14;;;;;;;28.65;16.95;;;26.10;99.90;;;;;;5064119;28;20047;-64
2022/04/29 00:07:41;;;;;;;50.38;21.40;;;26.10;99.90;;;;;;5065658;28;20469;-63
2022/04/29 00:10:14;;;;;;;35.80;20.23;;;26.10;99.90;;;;;;5072299;28;20024;-64
2022/04/29 00:12:46;;;;;;;41.08;20.17;;;26.10;99.90;;;;;;5073463;28;20025;-63
2022/04/29 00:15:13;;;;;;;;;;;26.10;99.90;;;;;;5073034;28;20024;-63
2022/04/29 00:17:40;;;;;;;32.00;18.55;;;26.10;99.90;;;;;;5072772;28;20406;-64
2022/04/29 00:20:09;;;;;;;27.08;13.60;;;26.10;99.90;;;;;;5072702;28;20055;-62
2022/04/29 00:22:36;;;;;;;24.40;13.15;;;26.10;99.90;;;;;;5073472;28;20040;-63
2022/04/29 00:25:04;;;;;;;22.75;10.60;;;26.10;99.90;;;;;;5073278;28;20405;-63
2022/04/29 00:27:30;;;;;;;22.83;11.30;;;26.10;99.90;;;;;;5073592;28;20060;-64
2022/04/29 00:29:57;;;;;;;26.95;12.10;;;26.10;99.90;;;;;;5072239;28;20112;-64
2022/04/29 00:32:24;;;;;;;21.52;11.35;;;26.10;99.90;;;;;;5073308;28;20040;-66
2022/04/29 00:34:50;;;;;;;22.90;13.25;;;26.10;99.90;;;;;;5071984;28;20126;-68
2022/04/29 00:37:18;;;;;;;26.23;13.88;;;26.10;99.90;;;;;;5073599;28;20197;-62
2022/04/29 00:39:45;;;;;;;23.33;12.98;;;26.20;99.90;;;;;;5073733;28;20078;-66
2022/04/29 00:42:14;;;;;;;30.50;13.38;;;26.20;99.90;;;;;;5073974;28;20039;-65
2022/04/29 00:44:42;;;;;;;25.10;14.25;;;26.30;99.90;;;;;;5070523;28;20027;-63
2022/04/29 00:47:14;;;;;;;37.10;15.63;;;26.30;99.90;;;;;;5074413;28;20122;-65
2022/04/29 00:49:42;;;;;;;27.13;16.48;;;26.40;99.90;;;;;;5070367;28;20035;-63
2022/04/29 00:52:13;;;;;;;30.65;17.13;;;26.40;99.90;;;;;;5076971;28;20021;-66
2022/04/29 00:54:42;;;;;;;31.65;14.68;;;26.50;99.90;;;;;;5076586;28;20049;-65
2022/04/29 00:57:15;;;;;;;26.52;15.38;;;26.50;99.90;;;;;;5076422;28;20530;-66
2022/04/29 00:59:44;;;;;;;26.58;14.45;;;26.60;99.90;;;;;;5076598;28;20040;-66
2022/04/29 01:02:14;;;;;;;33.03;14.68;;;26.60;99.90;;;;;;5074413;28;20359;-65
2022/04/29 01:04:56;;;;;;;27.42;13.88;;;26.60;99.90;;;;;;5076404;28;20024;-64
2022/04/29 01:07:22;;;;;;;;;;;26.80;99.90;;;;;;5070762;28;20036;-65
2022/04/29 01:09:49;;;;;;;22.60;13.40;;;26.80;99.90;;;;;;5065224;28;19909;-64
2022/04/29 01:12:16;;;;;;;26.10;13.85;;;26.80;99.90;;;;;;5066438;28;20025;-64
2022/04/29 01:14:44;;;;;;;22.45;14.30;;;26.90;99.90;;;;;;5066366;28;20035;-64
2022/04/29 01:17:11;;;;;;;30.63;13.32;;;27.00;99.90;;;;;;5065240;28;20111;-64
2022/04/29 01:19:40;;;;;;;20.45;10.50;;;27.00;99.90;;;;;;5066505;28;20032;-67
2022/04/29 01:22:08;;;;;;;19.45;11.55;;;27.10;99.90;;;;;;5065845;28;20028;-64
2022/04/29 01:24:35;;;;;;;22.17;12.70;;;27.10;99.90;;;;;;5070148;28;20493;-65
2022/04/29 01:27:01;;;;;;;20.52;12.07;;;27.20;99.90;;;;;;5070746;28;20492;-63
2022/04/29 01:29:31;;;;;;;19.52;11.85;;;27.30;99.90;;;;;;5070414;28;20033;-66
2022/04/29 01:31:58;;;;;;;20.95;11.10;;;27.30;99.90;;;;;;5071786;28;20032;-65
2022/04/29 01:34:24;;;;;;;19.20;10.40;;;27.40;99.90;;;;;;5075926;28;20673;-63
2022/04/29 01:36:51;;;;;;;20.70;10.38;;;27.40;99.90;;;;;;5069277;28;20037;-66
2022/04/29 01:39:18;;;;;;;23.23;11.05;;;27.40;99.90;;;;;;5067204;28;20067;-66
2022/04/29 01:41:45;;;;;;;18.73;11.25;;;27.50;99.90;;;;;;5070524;28;20032;-65
2022/04/29 01:44:11;;;;;;;18.00;11.00;;;27.50;99.90;;;;;;5061524;28;20029;-66
2022/04/29 01:46:38;;;;;;;24.08;11.45;;;27.60;99.90;;;;;;5068973;28;20044;-64
2022/04/29 01:49:05;;;;;;;18.75;10.63;;;27.70;99.90;;;;;;5075796;28;20158;-64
2022/04/29 01:51:31;;;;;;;15.35;9.65;;;27.70;99.90;;;;;;5069865;28;20028;-64
2022/04/29 01:53:59;;;;;;;15.52;10.07;;;27.80;99.90;;;;;;5067390;28;20052;-64
2022/04/29 01:56:34;;;;;;;20.02;10.95;;;27.80;99.90;;;;;;5064837;28;20028;-64
2022/04/29 01:59:02;;;;;;;22.48;12.80;;;27.80;99.90;;;;;;5065000;28;20116;-65
2022/04/29 02:01:29;;;;;;;22.85;12.65;;;27.90;99.90;;;;;;5065231;28;20025;-63
2022/04/29 02:03:55;;;;;;;19.30;12.27;;;28.00;99.90;;;;;;5065910;28;20501;-64
2022/04/29 02:06:23;;;;;;;19.42;10.52;;;28.10;99.90;;;;;;5063179;28;20032;-64
2022/04/29 02:08:49;;;;;;;15.52;10.88;;;28.10;99.90;;;;;;5069874;28;20112;-64
2022/04/29 02:11:17;;;;;;;22.02;11.18;;;28.20;99.90;;;;;;5075382;28;20034;-63
2022/04/29 02:13:46;;;;;;;13.43;10.75;;;28.20;99.90;;;;;;5074347;28;20031;-65
2022/04/29 02:16:14;;;;;;;12.88;9.18;;;28.30;99.90;;;;;;5075246;28;20067;-63
2022/04/29 02:18:41;;;;;;;13.70;10.52;;;28.30;99.90;;;;;;5074404;28;20116;-65
2022/04/29 02:21:08;;;;;;;19.52;11.15;;;28.40;99.90;;;;;;5075310;28;20070;-64
2022/04/29 02:23:34;;;;;;;16.48;11.30;;;28.50;99.90;;;;;;5074169;28;20116;-62
2022/04/29 02:26:01;;;;;;;21.55;12.63;;;28.60;99.90;;;;;;5075192;28;20417;-64
2022/04/29 02:28:28;;;;;;;18.20;13.07;;;28.60;99.90;;;;;;5074632;28;20040;-65
2022/04/29 02:31:00;;;;;;;19.08;12.70;;;28.60;99.90;;;;;;5073697;28;20029;-63
2022/04/29 02:33:27;;;;;;;24.88;16.60;;;28.70;99.90;;;;;;5074639;28;20469;-65
2022/04/29 02:35:54;;;;;;;26.63;17.92;;;28.70;99.90;;;;;;5074916;28;20028;-64
2022/04/29 02:38:21;;;;;;;23.65;17.13;;;28.80;99.90;;;;;;5073888;28;20465;-65
2022/04/29 02:40:50;;;;;;;30.80;18.27;;;28.90;99.90;;;;;;5068692;28;20037;-63
2022/04/29 02:43:20;;;;;;;30.25;20.60;;;28.90;99.90;;;;;;5063534;28;20032;-64
2022/04/29 02:45:47;;;;;;;28.60;19.60;;;29.10;99.90;;;;;;5063693;28;20082;-62
2022/04/29 02:48:15;;;;;;;28.33;20.38;;;29.20;99.90;;;;;;5064971;28;20028;-63
2022/04/29 02:50:42;;;;;;;34.42;25.98;;;29.20;99.90;;;;;;5063259;28;20024;-64
2022/04/29 02:53:09;;;;;;;37.42;22.67;;;29.30;99.90;;;;;;5064636;28;20027;-63
2022/04/29 02:55:36;;;;;;;25.70;18.80;;;29.30;99.90;;;;;;5062820;28;20045;-64
2022/04/29 02:58:02;;;;;;;28.63;21.08;;;29.40;99.90;;;;;;5065318;28;20028;-63
2022/04/29 03:00:30;;;;;;;29.63;19.67;;;29.50;99.90;;;;;;5062054;28;20020;-63
2022/04/29 03:02:56;;;;;;;28.35;22.05;;;29.60;99.90;;;;;;5060851;28;20021;-63
2022/04/29 03:05:23;;;;;;;29.30;21.23;;;29.60;99.90;;;;;;5065565;28;20104;-63
2022/04/29 03:07:50;;;;;;;29.05;19.70;;;29.70;99.90;;;;;;5063301;28;20432;-63
2022/04/29 03:10:17;;;;;;;30.52;21.90;;;29.70;99.90;;;;;;5064196;28;20021;-64
2022/04/29 03:12:44;;;;;;;34.28;23.05;;;29.70;99.90;;;;;;5063539;28;20029;-63
2022/04/29 03:20:11;;;;;;;31.75;20.88;;;29.80;99.90;;;;;;5062359;28;20040;-62
2022/04/29 03:22:38;;;;;;;26.80;19.83;;;30.00;99.90;;;;;;5062383;28;20037;-63
2022/04/29 03:25:06;;;;;;;23.65;16.17;;;30.00;99.90;;;;;;5065830;28;20512;-62
2022/04/29 03:27:32;;;;;;;26.02;15.18;;;30.10;99.90;;;;;;5070489;28;20029;-62
2022/04/29 03:29:59;;;;;;;21.88;16.55;;;30.10;99.90;;;;;;5065735;28;20433;-63
2022/04/29 03:32:26;;;;;;;24.55;17.10;;;30.20;99.90;;;;;;5063257;28;20021;-63
2022/04/29 03:34:52;;;;;;;23.98;16.95;;;30.20;99.90;;;;;;5063961;28;20068;-63
2022/04/29 03:37:19;;;;;;;29.30;17.52;;;30.20;99.90;;;;;;5063203;28;20029;-63
2022/04/29 03:39:45;;;;;;;26.85;19.05;;;30.10;99.90;;;;;;5063985;28;20029;-65
2022/04/29 03:42:13;;;;;;;25.75;18.73;;;30.30;99.90;;;;;;5062251;28;20025;-63
2022/04/29 03:44:39;;;;;;;27.98;18.13;;;30.40;99.90;;;;;;5066709;28;20504;-63
2022/04/29 03:47:06;;;;;;;25.05;17.75;;;30.50;99.90;;;;;;5064881;28;20470;-64
2022/04/29 03:49:36;;;;;;;24.08;17.17;;;30.80;99.90;;;;;;5061454;28;20070;-63
2022/04/29 03:52:03;;;;;;;30.73;18.17;;;30.80;99.90;;;;;;5062365;28;20096;-62
2022/04/29 03:54:30;;;;;;;23.48;16.15;;;30.80;99.90;;;;;;5061813;28;20041;-63
2022/04/29 03:56:57;;;;;;;19.65;14.55;;;30.80;99.90;;;;;;5065654;28;20119;-63
2022/04/29 03:59:24;;;;;;;20.15;14.73;;;30.80;99.90;;;;;;5062442;28;20075;-63
2022/04/29 04:01:51;;;;;;;23.42;16.52;;;30.80;99.90;;;;;;5062255;28;20020;-62
2022/04/29 04:04:18;;;;;;;20.73;15.15;;;30.90;99.90;;;;;;5061285;28;20029;-63
2022/04/29 04:06:51;;;;;;;20.60;15.18;;;30.90;99.90;;;;;;5062394;28;20044;-62
2022/04/29 04:09:19;;;;;;;19.90;14.55;;;30.90;99.90;;;;;;5061759;28;20545;-63
2022/04/29 04:11:46;;;;;;;16.83;13.35;;;30.90;99.90;;;;;;5068227;28;20414;-63
2022/04/29 04:14:13;;;;;;;21.58;14.63;;;30.90;99.90;;;;;;5062613;28;20044;-63
2022/04/29 04:16:39;;;;;;;20.15;13.68;;;31.00;99.90;;;;;;5062255;28;20036;-63
2022/04/29 04:19:06;;;;;;;17.45;13.07;;;31.00;99.90;;;;;;5065064;28;20051;-62
2022/04/29 04:21:33;;;;;;;17.40;12.68;;;31.10;99.90;;;;;;5063743;28;20551;-63
2022/04/29 04:24:00;;;;;;;13.75;10.18;;;31.20;99.90;;;;;;5072848;28;20035;-63
2022/04/29 04:26:26;;;;;;;15.13;11.43;;;31.20;99.90;;;;;;5073864;28;20101;-63
2022/04/29 04:28:53;;;;;;;12.73;11.32;;;31.40;99.90;;;;;;5065647;28;20032;-62
2022/04/29 04:31:21;;;;;;;14.73;10.05;;;31.50;99.90;;;;;;5071452;28;20029;-65
2022/04/29 04:33:48;;;;;;;16.08;11.75;;;31.50;99.90;;;;;;5067089;28;20036;-65
2022/04/29 04:36:15;;;;;;;17.88;12.18;;;31.70;99.90;;;;;;5069065;28;20029;-65
2022/04/29 04:38:42;;;;;;;16.70;12.02;;;31.80;99.90;;;;;;5066844;28;20037;-65
2022/04/29 04:41:09;;;;;;;16.67;11.90;;;31.80;99.90;;;;;;5067001;28;20469;-65
2022/04/29 04:43:36;;;;;;;14.70;11.43;;;31.80;99.90;;;;;;5071737;28;20112;-65
2022/04/29 04:46:04;;;;;;;19.38;13.50;;;31.80;99.90;;;;;;5067848;28;20032;-63
2022/04/29 04:48:34;;;;;;;13.85;11.82;;;31.80;99.90;;;;;;5067221;28;20033;-63
2022/04/29 04:51:03;;;;;;;15.02;12.73;;;31.80;99.90;;;;;;5067398;28;20503;-63
2022/04/29 04:53:31;;;;;;;18.45;11.85;;;31.90;99.90;;;;;;5070711;28;20048;-63
2022/04/29 04:55:57;;;;;;;17.48;11.95;;;32.00;99.90;;;;;;5066687;28;20023;-63
2022/04/29 04:58:24;;;;;;;14.60;11.88;;;32.00;99.90;;;;;;5067098;28;20561;-63
2022/04/29 05:00:52;;;;;;;17.98;11.75;;;32.10;99.90;;;;;;5065086;28;20031;-64
2022/04/29 05:03:18;;;;;;;21.58;12.40;;;32.20;99.90;;;;;;5065879;28;20350;-65
2022/04/29 05:05:45;;;;;;;22.73;13.02;;;32.20;99.90;;;;;;5066747;28;20032;-63
2022/04/29 05:08:12;;;;;;;17.73;11.77;;;32.20;99.90;;;;;;5061078;28;20036;-64
2022/04/29 05:10:38;;;;;;;14.68;11.02;;;32.00;99.90;;;;;;5068591;28;20036;-62
2022/04/29 05:13:05;;;;;;;17.60;12.05;;;32.20;99.90;;;;;;5069411;28;20033;-61
2022/04/29 05:15:32;;;;;;;18.73;12.52;;;32.20;99.90;;;;;;5056801;28;20053;-62
2022/04/29 05:17:58;;;;;;;15.07;11.95;;;32.40;99.90;;;;;;5056304;28;20381;-63
2022/04/29 05:20:25;;;;;;;18.67;12.90;;;32.40;99.90;;;;;;5062985;28;20125;-62
2022/04/29 05:22:52;;;;;;;16.42;11.52;;;32.40;99.90;;;;;;5067738;28;20028;-62
2022/04/29 05:25:18;;;;;;;13.63;11.75;;;32.40;99.90;;;;;;5065713;28;20452;-64
2022/04/29 05:27:45;;;;;;;15.20;11.75;;;32.40;99.30;;;;;;5060539;28;20044;-63
2022/04/29 05:30:12;;;;;;;18.15;12.43;;;32.50;98.70;;;;;;5070051;28;20047;-64
2022/04/29 05:32:39;;;;;;;15.40;12.32;;;32.60;98.50;;;;;;5066981;28;20028;-62
2022/04/29 05:35:08;;;;;;;13.95;10.88;;;32.70;97.50;;;;;;5066513;28;20024;-63
2022/04/29 05:37:37;;;;;;;11.98;10.77;;;32.60;99.50;;;;;;5066013;28;20028;-63
2022/04/29 05:42:42;;;;;;;14.85;12.25;;;32.90;98.90;;;;;;5065661;28;20024;-64
2022/04/29 05:45:09;;;;;;;14.57;12.60;;;32.90;97.60;;;;;;5065856;28;20501;-65
2022/04/29 05:47:36;;;;;;;15.75;13.27;;;32.80;97.40;;;;;;5062088;28;20048;-64
2022/04/29 05:50:03;;;;;;;15.77;12.77;;;32.70;98.10;;;;;;5063843;28;20029;-64
2022/04/29 05:52:30;;;;;;;19.25;13.48;;;32.80;99.90;;;;;;5066398;28;20032;-65
2022/04/29 05:54:57;;;;;;;23.98;13.13;;;32.90;97.90;;;;;;5067953;28;20052;-65
2022/04/29 05:57:24;;;;;;;16.20;14.13;;;33.10;97.60;;;;;;5067101;28;20021;-64
2022/04/29 05:59:51;;;;;;;18.15;13.75;;;33.10;96.00;;;;;;5064479;28;20029;-64
2022/04/29 06:02:17;;;;;;;17.95;13.55;;;33.10;97.10;;;;;;5068571;28;20482;-64
2022/04/29 06:04:44;;;;;;;16.85;14.13;;;33.10;97.70;;;;;;5065123;28;20029;-64
2022/04/29 06:07:11;;;;;;;20.55;14.82;;;33.20;97.80;;;;;;5067526;28;20107;-64
2022/04/29 06:09:37;;;;;;;17.42;13.13;;;33.40;97.30;;;;;;5075404;28;20037;-64
2022/04/29 06:12:04;;;;;;;19.27;12.18;;;33.60;96.70;;;;;;5069853;28;20151;-63
2022/04/29 06:14:31;;;;;;;18.17;14.73;;;33.60;96.40;;;;;;5060668;28;20028;-61
2022/04/29 06:16:58;;;;;;;14.65;13.15;;;33.60;96.30;;;;;;5060806;28;20100;-62
2022/04/29 06:19:24;;;;;;;18.92;13.88;;;33.50;96.00;;;;;;5067444;28;20032;-64
2022/04/29 06:21:54;;;;;;;15.82;12.77;;;33.40;95.90;;;;;;5063977;28;20021;-62
2022/04/29 06:24:21;;;;;;;19.05;13.23;;;33.50;95.50;;;;;;5063584;28;20490;-63
2022/04/29 06:26:47;;;;;;;19.08;13.05;;;33.50;95.10;;;;;;5063889;28;20509;-62
2022/04/29 06:29:15;;;;;;;19.05;14.13;;;33.60;96.10;;;;;;5062276;28;20029;-62
2022/04/29 06:31:41;;;;;;;20.60;13.73;;;33.70;96.20;;;;;;5064617;28;20385;-62
2022/04/29 06:34:08;;;;;;;16.90;13.25;;;33.90;95.30;;;;;;5071780;28;20031;-62
2022/04/29 06:36:35;;;;;;;16.42;12.57;;;33.80;95.00;;;;;;5062819;28;20033;-62
2022/04/29 06:39:01;;;;;;;18.73;13.65;;;33.90;95.00;;;;;;5074625;28;20036;-63
2022/04/29 06:41:28;;;;;;;18.73;13.15;;;33.80;93.90;;;;;;5074313;28;20036;-63
2022/04/29 06:43:55;;;;;;;16.73;12.40;;;33.60;94.10;;;;;;5073257;28;20541;-63
2022/04/29 06:46:24;;;;;;;16.45;12.55;;;33.60;94.50;;;;;;5072198;28;21262;-63
2022/04/29 06:48:54;;;;;;;14.93;12.40;;;33.50;93.80;;;;;;5055953;28;20511;-64
2022/04/29 06:51:21;;;;;;;16.98;13.50;;;33.40;94.70;;;;;;5072274;28;21515;-63
2022/04/29 06:53:48;;;;;;;14.15;12.23;;;33.40;93.70;;;;;;5071805;28;20106;-64
2022/04/29 06:56:15;;;;;;;17.83;11.77;;;33.40;93.80;;;;;;5072588;28;20090;-63
2022/04/29 06:58:41;;;;;;;19.25;12.88;;;33.40;93.40;;;;;;5074133;28;20028;-65
2022/04/29 07:01:08;;;;;;;16.58;12.10;;;33.50;94.10;;;;;;5074309;28;20028;-63
2022/04/29 07:03:36;;;;;;;18.20;11.82;;;33.60;93.30;;;;;;5074378;28;20486;-63
2022/04/29 07:06:04;;;;;;;14.85;11.90;;;33.70;93.20;;;;;;5073340;28;20385;-65
2022/04/29 07:08:31;;;;;;;12.45;10.15;;;33.60;92.40;;;;;;5071540;28;20036;-64
2022/04/29 07:10:58;;;;;;;13.00;11.15;;;33.60;91.60;;;;;;5073596;28;20025;-64
2022/04/29 07:13:24;;;;;;;12.38;10.68;;;33.60;91.70;;;;;;5063840;28;20110;-64
2022/04/29 07:15:51;;;;;;;15.05;12.18;;;33.60;92.10;;;;;;5070484;28;20078;-64
2022/04/29 07:18:18;;;;;;;14.20;12.07;;;33.60;93.20;;;;;;5072727;28;20371;-61
2022/04/29 07:20:45;;;;;;;14.65;13.07;;;33.60;92.60;;;;;;5073879;28;20031;-63
2022/04/29 07:23:12;;;;;;;16.20;12.57;;;33.50;93.10;;;;;;5072462;28;20021;-63
2022/04/29 07:25:38;;;;;;;13.02;11.30;;;33.60;93.00;;;;;;5071115;28;20028;-63
2022/04/29 07:28:05;;;;;;;12.63;11.32;;;33.60;91.80;;;;;;5073177;28;20092;-62
2022/04/29 07:30:32;;;;;;;13.90;11.82;;;33.60;92.40;;;;;;5073697;28;20035;-63
2022/04/29 07:32:58;;;;;;;15.38;12.85;;;33.60;92.80;;;;;;5073639;28;20032;-60
2022/04/29 07:43:21;;;;;;;12.18;10.70;;;33.90;91.10;;;;;;5069691;28;20369;-64
2022/04/29 07:45:51;;;;;;;11.82;10.25;;;33.90;91.60;;;;;;5073090;28;20029;-63
2022/04/29 07:48:18;;;;;;;14.20;8.90;;;33.90;90.40;;;;;;5073535;28;20377;-62
2022/04/29 07:50:46;;;;;;;21.38;15.70;;;34.00;89.90;;;;;;5072875;28;20033;-62
2022/04/29 07:53:13;;;;;;;12.02;9.70;;;33.90;90.50;;;;;;5072064;28;20072;-62
2022/04/29 07:55:40;;;;;;;11.43;8.50;;;34.00;90.20;;;;;;5069475;28;20112;-63
2022/04/29 07:58:07;;;;;;;25.35;14.95;;;34.00;88.70;;;;;;5064344;28;20078;-62
2022/04/29 08:00:33;;;;;;;12.07;7.35;;;34.00;91.10;;;;;;5072686;28;20418;-63
2022/04/29 08:03:01;;;;;;;10.48;8.32;;;34.10;90.00;;;;;;5073172;28;20097;-63
2022/04/29 08:05:29;;;;;;;10.05;6.60;;;34.00;89.50;;;;;;5071413;28;20078;-62
2022/04/29 08:07:59;;;;;;;9.50;7.00;;;34.00;88.50;;;;;;5071847;28;20039;-62
2022/04/29 08:10:30;;;;;;;10.07;6.18;;;34.00;88.30;;;;;;5073255;28;20377;-62
2022/04/29 08:12:58;;;;;;;8.65;5.97;;;33.90;89.10;;;;;;5073122;28;20055;-62
2022/04/29 08:15:26;;;;;;;16.92;11.07;;;34.00;87.90;;;;;;5073201;28;20029;-63
2022/04/29 08:17:53;;;;;;;14.15;8.60;;;34.00;88.50;;;;;;5072965;28;20017;-62
2022/04/29 08:20:21;;;;;;;10.27;5.72;;;33.90;88.30;;;;;;5073075;28;20151;-61
2022/04/29 08:22:48;;;;;;;10.55;7.95;;;34.00;86.70;;;;;;5073166;28;20396;-61
2022/04/29 08:25:17;;;;;;;7.78;5.90;;;33.90;87.20;;;;;;5071699;28;20096;-62
2022/04/29 08:27:45;;;;;;;15.50;9.43;;;33.90;85.70;;;;;;5072998;28;20029;-62
2022/04/29 08:30:14;;;;;;;10.18;6.78;;;33.80;86.90;;;;;;5072879;28;20050;-61
2022/04/29 08:32:46;;;;;;;6.65;5.35;;;33.80;88.20;;;;;;5073127;28;20107;-62
2022/04/29 08:35:14;;;;;;;11.82;8.25;;;33.90;89.30;;;;;;5071947;28;20354;-63
2022/04/29 08:37:42;;;;;;;16.33;9.65;;;33.80;87.50;;;;;;5072559;28;20032;-64
2022/04/29 08:40:11;;;;;;;14.63;8.10;;;33.80;87.90;;;;;;5072437;28;20063;-63
2022/04/29 08:42:40;;;;;;;19.42;14.43;;;33.80;86.40;;;;;;5072123;28;20047;-63
2022/04/29 08:45:11;;;;;;;11.80;8.00;;;33.80;89.00;;;;;;5071396;28;20111;-67
2022/04/29 08:47:40;;;;;;;18.23;8.93;;;33.80;89.80;;;;;;5071244;28;20101;-63
2022/04/29 08:50:12;;;;;;;15.65;8.43;;;33.80;87.70;;;;;;5070194;28;20127;-62
2022/04/29 08:52:40;;;;;;;40.17;26.70;;;33.70;88.80;;;;;;5065232;28;20453;-62
2022/04/29 09:00:26;;;;;;;15.25;9.32;;;33.80;89.40;;;;;;5068496;28;20496;-62
2022/04/29 09:02:52;;;;;;;13.40;7.97;;;33.80;89.40;;;;;;5062249;28;20047;-63
2022/04/29 09:05:19;;;;;;;15.90;10.02;;;33.70;89.60;;;;;;5064173;28;20047;-63
2022/04/29 09:07:54;;;;;;;13.85;8.93;;;33.60;90.30;;;;;;5071762;28;20025;-61
2022/04/29 09:10:22;;;;;;;16.23;10.20;;;33.70;90.50;;;;;;5067694;28;20159;-62
2022/04/29 09:12:49;;;;;;;32.10;22.73;;;33.70;89.00;;;;;;5065738;28;20039;-65
2022/04/29 09:15:16;;;;;;;18.95;11.63;;;33.70;90.60;;;;;;5064826;28;20028;-62
2022/04/29 09:17:51;;;;;;;26.20;17.52;;;33.60;90.30;;;;;;5073191;28;20032;-62
2022/04/29 09:20:22;;;;;;;19.80;14.65;;;33.60;89.70;;;;;;5075145;28;20033;-63
2022/04/29 09:22:51;;;;;;;27.25;13.30;;;33.70;90.70;;;;;;5061479;28;20032;-62
2022/04/29 09:25:18;;;;;;;15.43;9.65;;;33.70;90.40;;;;;;5069948;28;20030;-63
2022/04/29 09:28:01;;;;;;;17.17;7.63;;;33.60;90.90;;;;;;5065440;28;20052;-63
2022/04/29 09:30:40;;;;;;;18.92;10.32;;;33.60;90.90;;;;;;5069729;28;20035;-64
2022/04/29 09:33:25;;;;;;;37.88;23.38;;;33.60;90.90;;;;;;5065301;28;20096;-63
2022/04/29 09:35:53;;;;;;;24.42;16.08;;;33.60;90.40;;;;;;5066300;28;20050;-63
2022/04/29 09:40:52;;;;;;;16.43;10.50;;;33.60;90.50;;;;;;5069933;28;20078;-63
2022/04/29 09:43:26;;;;;;;22.27;12.65;;;33.60;91.00;;;;;;5071957;28;20082;-64
2022/04/29 09:46:07;;;;;;;17.48;9.70;;;33.60;90.90;;;;;;5071079;28;20452;-63
2022/04/29 09:48:57;;;;;;;15.77;9.40;;;33.60;90.90;;;;;;5056234;28;20488;-64
2022/04/29 09:51:38;;;;;;;17.88;9.55;;;33.50;91.50;;;;;;5068579;28;20032;-66
2022/04/29 09:54:12;;;;;;;25.17;15.50;;;33.50;91.80;;;;;;5075475;28;20460;-64
2022/04/29 09:56:39;;;;;;;30.38;18.15;;;33.50;90.70;;;;;;5074978;28;20063;-63
2022/04/29 09:59:08;;;;;;;24.52;16.80;;;33.40;91.00;;;;;;5075657;28;20100;-63
2022/04/29 10:01:35;;;;;;;12.55;8.57;;;33.40;91.50;;;;;;5074389;28;20044;-65
2022/04/29 10:04:02;;;;;;;17.55;9.77;;;33.40;91.10;;;;;;5058130;28;20086;-62
2022/04/29 10:06:31;;;;;;;15.60;9.23;;;33.40;91.40;;;;;;5065355;28;20085;-62
2022/04/29 10:08:59;;;;;;;11.65;8.63;;;33.40;91.70;;;;;;5074598;28;20024;-61
2022/04/29 10:11:33;;;;;;;18.45;10.18;;;33.40;90.90;;;;;;5074768;28;20487;-63
2022/04/29 10:14:04;;;;;;;14.68;8.05;;;33.30;91.30;;;;;;5073882;28;20024;-61
2022/04/29 10:16:34;;;;;;;25.63;8.93;;;33.30;91.30;;;;;;5072581;28;20381;-61
2022/04/29 10:21:50;;;;;;;17.20;10.43;;;33.30;91.50;;;;;;5072969;28;20029;-62
2022/04/29 10:24:17;;;;;;;15.07;8.80;;;33.20;91.50;;;;;;5073980;28;20033;-63
2022/04/29 10:26:44;;;;;;;22.42;11.20;;;33.20;91.40;;;;;;5063408;28;20116;-60
2022/04/29 10:29:11;;;;;;;13.90;8.85;;;33.30;91.70;;;;;;5073240;28;20056;-62
2022/04/29 10:31:38;;;;;;;9.38;7.82;;;33.30;91.60;;;;;;5074556;28;20469;-62
2022/04/29 10:34:27;;;;;;;26.13;16.30;;;33.20;91.70;;;;;;5063702;28;20450;-62
2022/04/29 10:36:54;;;;;;;33.75;17.77;;;33.20;91.80;;;;;;5069195;28;20358;-63
2022/04/29 10:39:22;;;;;;;79.82;54.92;;;33.30;91.80;;;;;;5073060;28;20060;-63
2022/04/29 10:42:09;;;;;;;26.17;16.45;;;33.30;91.80;;;;;;5073241;28;20119;-62
2022/04/29 10:45:00;;;;;;;19.15;12.30;;;33.20;91.40;;;;;;5073689;28;20460;-64
2022/04/29 10:47:31;;;;;;;22.70;12.38;;;33.20;92.00;;;;;;5073445;28;20037;-64
2022/04/29 10:50:21;;;;;;;43.35;26.92;;;33.10;92.00;;;;;;5071324;28;20040;-61
2022/04/29 10:53:00;;;;;;;56.15;31.48;;;33.10;91.70;;;;;;5072219;28;20056;-62
2022/04/29 10:55:26;;;;;;;53.45;30.95;;;33.10;92.10;;;;;;5063621;28;20053;-62
2022/04/29 10:57:56;;;;;;;57.75;31.73;;;33.00;92.40;;;;;;5066646;28;20040;-62
2022/04/29 11:00:23;;;;;;;54.63;35.53;;;33.00;92.80;;;;;;5062852;28;20086;-62
2022/04/29 11:02:50;;;;;;;71.07;43.85;;;33.00;93.00;;;;;;5067640;28;20543;-62
2022/04/29 11:05:37;;;;;;;85.10;54.50;;;33.00;92.90;;;;;;5072663;28;20504;-61
2022/04/29 11:08:10;;;;;;;131.27;78.15;;;33.00;93.40;;;;;;5073525;28;20111;-63
2022/04/29 11:10:53;;;;;;;167.45;100.93;;;33.00;93.60;;;;;;5073331;28;20074;-62
2022/04/29 11:13:26;;;;;;;85.53;45.70;;;33.00;93.60;;;;;;5073264;28;20035;-61
2022/04/29 11:15:53;;;;;;;111.72;71.03;;;33.00;93.40;;;;;;5071595;28;20389;-66
2022/04/29 11:18:25;;;;;;;101.43;66.13;;;33.00;93.40;;;;;;5074280;28;20028;-62
2022/04/29 11:20:56;;;;;;;67.28;41.47;;;33.00;93.60;;;;;;5073075;28;20035;-63
2022/04/29 11:25:59;;;;;;;61.00;38.17;;;32.90;93.60;;;;;;5072676;28;20327;-61
2022/04/29 11:28:26;;;;;;;57.72;38.22;;;32.90;93.70;;;;;;5067725;28;20028;-63
2022/04/29 11:31:06;;;;;;;57.10;37.65;;;32.80;93.60;;;;;;5070440;28;20029;-62
2022/04/29 11:33:33;;;;;;;54.08;35.30;;;32.80;94.10;;;;;;5061592;28;20024;-63
2022/04/29 11:36:09;;;;;;;59.08;36.30;;;32.80;94.40;;;;;;5058336;28;20035;-63
2022/04/29 11:38:46;;;;;;;66.80;39.22;;;32.70;94.60;;;;;;5073882;28;20036;-62
2022/04/29 11:41:22;;;;;;;110.15;64.43;;;32.70;93.90;;;;;;5073921;28;20021;-60
2022/04/29 11:43:49;;;;;;;140.38;90.18;;;32.70;94.20;;;;;;5054332;28;20043;-63
2022/04/29 11:46:17;;;;;;;159.23;92.72;;;32.60;94.60;;;;;;5062460;28;20025;-62
2022/04/29 11:48:56;;;;;;;116.88;61.35;;;32.60;95.20;;;;;;5074410;28;20033;-62
2022/04/29 11:51:23;;;;;;;143.88;87.28;;;32.60;95.60;;;;;;5065072;28;20021;-64
2022/04/29 11:54:04;;;;;;;240.40;185.48;;;32.50;96.20;;;;;;5069165;28;20049;-64
2022/04/29 11:56:40;;;;;;;146.93;108.55;;;32.40;96.70;;;;;;5063487;28;20376;-63
2022/04/29 11:59:08;;;;;;;91.43;58.92;;;32.40;96.70;;;;;;5068491;22;20053;-62
2022/04/29 12:01:36;;;;;;;95.50;63.70;;;32.40;96.70;;;;;;5053051;28;20040;-62
2022/04/29 12:04:03;;;;;;;70.65;43.45;;;32.40;96.90;;;;;;5052446;28;20359;-62
2022/04/29 12:06:30;;;;;;;67.05;38.83;;;32.40;97.10;;;;;;5042307;28;20386;-63
2022/04/29 12:08:57;;;;;;;63.50;39.33;;;32.40;97.20;;;;;;5051996;28;20033;-62
2022/04/29 12:11:31;;;;;;;140.50;101.57;;;32.40;97.20;;;;;;5052505;28;20028;-61
2022/04/29 12:14:15;;;;;;;71.93;43.70;;;32.20;97.40;;;;;;5051951;28;20028;-62
2022/04/29 12:16:45;;;;;;;64.95;39.83;;;32.20;97.60;;;;;;5043635;28;20040;-64
2022/04/29 12:19:18;;;;;;;73.25;45.85;;;32.20;97.50;;;;;;5051824;28;20110;-63
2022/04/29 12:21:59;;;;;;;78.55;45.38;;;32.20;97.80;;;;;;5051909;28;20035;-64
2022/04/29 12:24:26;;;;;;;74.72;42.95;;;32.10;97.90;;;;;;5053318;28;20028;-63
2022/04/29 12:27:00;;;;;;;72.32;39.45;;;32.20;97.90;;;;;;5041088;28;20104;-62
2022/04/29 12:29:31;;;;;;;62.13;38.53;;;32.10;98.10;;;;;;5051979;28;20029;-63
2022/04/29 12:34:48;;;;;;;63.15;38.20;;;32.00;98.10;;;;;;5047942;28;20018;-63
2022/04/29 12:37:15;;;;;;;98.05;39.20;;;32.00;98.30;;;;;;5034972;28;20033;-62
2022/04/29 12:39:43;;;;;;;67.13;41.55;;;31.90;98.20;;;;;;5052400;28;20037;-62
2022/04/29 12:42:12;;;;;;;67.57;45.80;;;31.90;98.60;;;;;;5053667;28;20497;-63
2022/04/29 12:47:25;;;;;;;127.07;77.40;;;31.90;98.60;;;;;;5055974;28;20033;-64
2022/04/29 12:49:52;;;;;;;130.70;74.78;;;31.80;99.10;;;;;;5057423;28;20029;-62
2022/04/29 12:52:19;;;;;;;117.70;72.03;;;31.80;99.50;;;;;;5055758;28;20442;-62
2022/04/29 12:54:46;;;;;;;100.53;61.38;;;31.90;99.50;;;;;;5056903;28;20036;-64
2022/04/29 12:57:13;;;;;;;80.00;49.80;;;31.90;99.30;;;;;;5056511;28;20025;-62
2022/04/29 12:59:40;;;;;;;70.93;43.35;;;31.80;99.10;;;;;;5056265;28;20056;-63
2022/04/29 13:02:08;;;;;;;71.30;41.80;;;31.90;99.00;;;;;;5055687;28;20405;-63
2022/04/29 13:04:34;;;;;;;74.85;46.33;;;31.80;98.90;;;;;;5047670;28;20440;-64
2022/04/29 13:07:01;;;;;;;95.03;56.97;;;31.80;99.20;;;;;;5042911;28;20037;-62
2022/04/29 13:09:28;;;;;;;120.43;68.40;;;31.60;99.90;;;;;;5049896;28;20036;-65